Time;durP1;ratioP1;P1;durP2;ratioP2;P2;SDS_P1;SDS_P2;PMS_P1;PMS_P2;Temp;Humidity;BMP_temperature;BMP_pressure;BME280_temperature;BME280_humidity;BME280_pressure;Samples;Min_cycle;Max_cycle;Signal;HPM_P1;HPM_P2
2023/05/12 00:01:06;;;;;;;16.38;9.50;;;11.80;99.90;;;;;;5010121;28;20078;-56
2023/05/12 00:03:32;;;;;;;21.20;11.45;;;12.30;99.90;;;;;;5010243;28;20069;-56
2023/05/12 00:06:02;;;;;;;20.17;11.38;;;12.10;99.90;;;;;;5009924;28;20492;-56
2023/05/12 00:08:28;;;;;;;22.50;12.88;;;12.30;99.90;;;;;;5010172;28;20048;-56
2023/05/12 00:10:53;;;;;;;25.88;13.63;;;12.10;99.90;;;;;;5025457;28;20049;-56
2023/05/12 00:13:22;;;;;;;22.92;12.70;;;12.20;99.90;;;;;;5009984;28;20052;-56
2023/05/12 00:15:48;;;;;;;35.10;14.25;;;12.20;99.90;;;;;;5013583;28;20127;-56
2023/05/12 00:18:14;;;;;;;24.73;13.32;;;11.90;99.90;;;;;;5003877;28;20439;-57
2023/05/12 00:20:40;;;;;;;37.17;16.63;;;11.80;99.90;;;;;;4994153;28;20061;-56
2023/05/12 00:23:06;;;;;;;36.17;16.98;;;11.80;99.90;;;;;;4993859;28;20046;-56
2023/05/12 00:25:32;;;;;;;34.47;17.75;;;12.20;99.90;;;;;;4993892;28;20133;-56
2023/05/12 00:27:58;;;;;;;37.85;15.63;;;11.70;99.90;;;;;;4993842;28;20046;-56
2023/05/12 00:30:24;;;;;;;32.88;17.83;;;12.60;99.90;;;;;;4993665;28;20174;-56
2023/05/12 00:32:49;;;;;;;38.25;17.95;;;12.20;99.90;;;;;;4994148;28;20053;-56
2023/05/12 00:35:15;;;;;;;41.78;18.25;;;12.10;99.90;;;;;;4993857;28;20046;-56
2023/05/12 00:37:41;;;;;;;34.97;18.00;;;12.20;99.90;;;;;;4993873;28;20038;-56
2023/05/12 00:40:08;;;;;;;42.42;19.25;;;12.10;99.90;;;;;;4993759;28;20461;-56
2023/05/12 00:42:35;;;;;;;37.25;18.42;;;11.80;99.90;;;;;;4993669;28;20109;-56
2023/05/12 00:45:01;;;;;;;44.85;22.90;;;12.20;99.90;;;;;;4993367;28;20121;-56
2023/05/12 00:47:27;;;;;;;41.53;20.75;;;12.20;99.90;;;;;;4993762;28;20050;-56
2023/05/12 00:49:53;;;;;;;43.33;21.85;;;12.40;99.90;;;;;;4993616;28;20162;-56
2023/05/12 00:52:19;;;;;;;40.25;20.73;;;12.20;99.90;;;;;;4993658;28;20129;-56
2023/05/12 00:54:46;;;;;;;34.60;19.70;;;12.20;99.90;;;;;;4993637;28;20145;-56
2023/05/12 00:57:12;;;;;;;42.05;20.73;;;11.90;99.90;;;;;;4993324;28;20507;-56
2023/05/12 00:59:38;;;;;;;38.33;22.45;;;12.50;99.90;;;;;;4993188;28;20050;-56
2023/05/12 01:02:04;;;;;;;51.50;23.58;;;12.30;99.90;;;;;;4993450;28;20121;-56
2023/05/12 01:04:31;;;;;;;46.65;22.73;;;12.20;99.90;;;;;;4993029;28;20057;-56
2023/05/12 01:07:08;;;;;;;43.00;22.08;;;11.80;99.90;;;;;;4993399;28;20096;-56
2023/05/12 01:09:35;;;;;;;47.25;23.83;;;12.30;99.90;;;;;;4993250;28;20100;-56
2023/05/12 01:12:01;;;;;;;49.22;22.90;;;12.20;99.90;;;;;;4993473;28;20702;-56
2023/05/12 01:14:26;;;;;;;39.65;21.63;;;12.20;99.90;;;;;;4993251;28;20050;-56
2023/05/12 01:16:54;;;;;;;46.22;22.88;;;12.20;99.90;;;;;;4992986;28;20045;-56
2023/05/12 01:19:40;;;;;;;51.63;24.25;;;12.20;99.90;;;;;;5011492;28;20048;-56
2023/05/12 01:22:07;;;;;;;44.03;23.17;;;12.40;99.90;;;;;;5012815;28;20042;-56
2023/05/12 01:24:39;;;;;;;38.58;21.27;;;12.20;99.90;;;;;;5012227;28;20056;-56
2023/05/12 01:27:06;;;;;;;61.83;24.23;;;11.70;99.90;;;;;;5028021;28;20057;-56
2023/05/12 01:29:32;;;;;;;48.55;24.42;;;12.20;99.90;;;;;;5012687;28;20496;-56
2023/05/12 01:31:58;;;;;;;40.05;22.10;;;12.30;99.90;;;;;;5012836;28;20117;-56
2023/05/12 01:34:24;;;;;;;44.13;22.48;;;11.80;99.90;;;;;;5012694;28;20112;-56
2023/05/12 01:36:50;;;;;;;38.13;19.05;;;12.20;99.90;;;;;;5012869;28;20565;-56
2023/05/12 01:39:16;;;;;;;64.30;22.35;;;12.40;99.90;;;;;;5012806;28;20081;-56
2023/05/12 01:41:41;;;;;;;53.95;24.63;;;12.20;99.90;;;;;;5012790;28;20101;-56
2023/05/12 01:44:07;;;;;;;59.65;24.63;;;12.20;99.90;;;;;;5012945;28;20067;-56
2023/05/12 01:46:33;;;;;;;39.28;19.88;;;11.80;99.90;;;;;;5012316;28;20475;-56
2023/05/12 01:48:58;;;;;;;63.13;24.02;;;12.30;99.90;;;;;;5012212;28;20048;-56
2023/05/12 01:51:24;;;;;;;49.25;21.98;;;12.10;99.90;;;;;;5012115;28;20154;-56
2023/05/12 01:53:50;;;;;;;43.90;22.30;;;12.10;99.90;;;;;;5012113;28;20042;-56
2023/05/12 01:56:15;;;;;;;56.15;23.58;;;12.20;99.90;;;;;;5012495;28;20042;-56
2023/05/12 01:58:41;;;;;;;46.63;22.95;;;12.20;99.90;;;;;;5012374;28;20053;-56
2023/05/12 02:01:07;;;;;;;39.25;22.38;;;12.20;99.90;;;;;;5012230;28;20499;-56
2023/05/12 02:03:32;;;;;;;62.45;23.45;;;12.10;99.90;;;;;;5012235;28;20065;-56
2023/05/12 02:05:58;;;;;;;51.33;24.88;;;12.20;99.90;;;;;;5011273;28;20064;-56
2023/05/12 02:08:24;;;;;;;47.65;23.48;;;12.20;99.90;;;;;;5012054;28;20373;-56
2023/05/12 02:10:50;;;;;;;49.72;23.25;;;12.20;99.90;;;;;;5011795;28;20040;-56
2023/05/12 02:13:15;;;;;;;49.85;24.70;;;11.80;99.90;;;;;;5011856;28;20445;-56
2023/05/12 02:15:41;;;;;;;47.38;25.73;;;12.30;99.90;;;;;;5011608;28;20046;-56
2023/05/12 02:18:06;;;;;;;54.35;24.05;;;12.20;99.90;;;;;;5002548;28;20116;-56
2023/05/12 02:20:32;;;;;;;50.30;23.63;;;12.10;99.90;;;;;;4991878;28;20382;-56
2023/05/12 02:22:58;;;;;;;65.30;27.55;;;12.20;99.90;;;;;;4992238;28;20129;-56
2023/05/12 02:25:23;;;;;;;54.30;24.35;;;12.10;99.90;;;;;;4991670;28;20093;-56
2023/05/12 02:27:49;;;;;;;69.28;29.08;;;12.10;99.90;;;;;;4992113;28;20038;-56
2023/05/12 02:30:15;;;;;;;54.28;25.02;;;12.60;99.90;;;;;;4990452;28;20117;-56
2023/05/12 02:32:40;;;;;;;58.60;26.92;;;12.10;99.90;;;;;;4992156;28;20550;-56
2023/05/12 02:35:07;;;;;;;57.95;27.08;;;12.10;99.90;;;;;;4991825;28;20034;-56
2023/05/12 02:37:32;;;;;;;59.25;27.42;;;11.80;99.90;;;;;;4991107;28;20070;-56
2023/05/12 02:39:58;;;;;;;60.70;28.08;;;12.20;99.90;;;;;;4991808;28;20096;-56
2023/05/12 02:42:27;;;;;;;58.63;27.73;;;12.20;99.90;;;;;;4991552;28;20081;-56
2023/05/12 02:44:53;;;;;;;62.08;27.58;;;11.90;99.90;;;;;;4991784;28;20046;-56
2023/05/12 02:47:19;;;;;;;69.18;28.25;;;12.10;99.90;;;;;;5006766;28;20046;-56
2023/05/12 02:49:44;;;;;;;65.13;28.67;;;12.20;99.90;;;;;;4991683;28;20162;-56
2023/05/12 02:52:10;;;;;;;52.50;28.10;;;12.10;99.90;;;;;;4991820;28;20046;-56
2023/05/12 02:54:36;;;;;;;68.88;26.75;;;12.10;99.90;;;;;;4990290;28;20392;-56
2023/05/12 02:57:05;;;;;;;65.07;28.35;;;12.40;99.90;;;;;;4991675;28;20057;-56
2023/05/12 02:59:31;;;;;;;66.97;29.23;;;11.80;99.90;;;;;;4991558;28;20388;-56
2023/05/12 03:01:56;;;;;;;64.95;27.98;;;12.20;99.90;;;;;;4991214;28;20039;-56
2023/05/12 03:04:22;;;;;;;57.70;28.38;;;11.80;99.90;;;;;;4991047;28;20077;-56
2023/05/12 03:06:48;;;;;;;59.85;29.42;;;12.20;99.90;;;;;;4990862;28;20054;-56
2023/05/12 03:09:14;;;;;;;60.13;28.52;;;12.10;99.90;;;;;;4991293;28;20049;-56
2023/05/12 03:11:40;;;;;;;61.17;30.00;;;12.10;99.90;;;;;;4989697;28;20046;-56
2023/05/12 03:14:06;;;;;;;72.57;32.47;;;12.50;99.90;;;;;;4991165;28;20097;-56
2023/05/12 03:16:31;;;;;;;66.68;30.85;;;12.10;99.90;;;;;;4991046;28;20551;-56
2023/05/12 03:18:57;;;;;;;83.43;29.80;;;12.20;99.90;;;;;;5006389;28;20127;-56
2023/05/12 03:21:23;;;;;;;65.03;29.45;;;12.10;99.90;;;;;;5010573;28;20056;-56
2023/05/12 03:23:49;;;;;;;66.95;28.90;;;11.70;99.90;;;;;;5010750;28;20053;-56
2023/05/12 03:26:14;;;;;;;68.95;29.63;;;12.10;99.90;;;;;;5010441;28;20041;-56
2023/05/12 03:28:40;;;;;;;70.63;30.05;;;12.10;99.90;;;;;;5010476;28;20037;-56
2023/05/12 03:31:06;;;;;;;66.28;28.70;;;12.00;99.90;;;;;;5010429;28;20053;-56
2023/05/12 03:33:31;;;;;;;70.40;31.95;;;12.30;99.90;;;;;;5010594;28;20076;-56
2023/05/12 03:35:57;;;;;;;71.78;30.17;;;12.00;99.90;;;;;;5010310;28;20112;-56
2023/05/12 03:38:23;;;;;;;76.85;29.17;;;12.10;99.90;;;;;;5010530;28;20107;-56
2023/05/12 03:40:51;;;;;;;70.65;30.27;;;11.70;99.90;;;;;;5010481;28;20056;-56
2023/05/12 03:43:17;;;;;;;76.72;31.65;;;12.00;99.90;;;;;;5010164;28;20042;-56
2023/05/12 03:45:43;;;;;;;68.30;30.23;;;12.00;99.90;;;;;;5010111;28;20042;-56
2023/05/12 03:48:08;;;;;;;70.55;28.20;;;12.20;99.90;;;;;;5011217;28;20099;-56
2023/05/12 03:50:34;;;;;;;77.15;30.58;;;11.90;99.90;;;;;;5014388;28;20046;-56
2023/05/12 03:53:00;;;;;;;65.05;29.02;;;12.10;99.90;;;;;;5014427;28;20119;-56
2023/05/12 03:55:25;;;;;;;82.90;31.05;;;12.00;99.90;;;;;;5014627;28;20049;-56
2023/05/12 03:57:51;;;;;;;64.53;29.95;;;12.00;99.90;;;;;;5014338;28;20034;-56
2023/05/12 04:00:17;;;;;;;78.13;32.35;;;12.40;99.90;;;;;;5014187;28;20372;-56
2023/05/12 04:02:43;;;;;;;80.40;31.95;;;11.70;99.90;;;;;;5013613;28;20111;-56
2023/05/12 04:05:09;;;;;;;74.18;31.05;;;12.00;99.90;;;;;;5013736;28;20392;-56
2023/05/12 04:07:35;;;;;;;77.03;31.40;;;11.70;99.90;;;;;;5014055;28;20060;-57
2023/05/12 04:10:01;;;;;;;73.03;29.50;;;11.80;99.90;;;;;;5013946;28;20103;-56
2023/05/12 04:12:27;;;;;;;81.80;32.05;;;12.10;99.90;;;;;;5013742;28;20052;-56
2023/05/12 04:14:53;;;;;;;68.75;29.88;;;12.00;99.90;;;;;;5014009;28;20468;-56
2023/05/12 04:17:18;;;;;;;79.13;31.20;;;12.00;99.90;;;;;;5011202;28;20153;-56
2023/05/12 04:19:44;;;;;;;76.75;32.20;;;11.90;99.90;;;;;;4993903;28;20045;-56
2023/05/12 04:22:09;;;;;;;74.22;31.88;;;12.00;99.90;;;;;;4994155;28;20052;-56
2023/05/12 04:24:37;;;;;;;73.88;31.48;;;11.90;99.90;;;;;;4994048;28;20052;-56
2023/05/12 04:27:03;;;;;;;101.32;34.60;;;12.20;99.90;;;;;;4993855;28;20052;-56
2023/05/12 04:29:29;;;;;;;81.32;33.53;;;11.70;99.90;;;;;;4993916;28;20149;-56
2023/05/12 04:31:54;;;;;;;86.32;33.95;;;12.10;99.90;;;;;;4993821;28;20520;-56
2023/05/12 04:34:20;;;;;;;86.88;31.45;;;12.10;99.90;;;;;;4992500;28;20496;-56
2023/05/12 04:36:46;;;;;;;103.40;35.72;;;12.20;99.90;;;;;;4993937;28;20433;-56
2023/05/12 04:39:11;;;;;;;116.80;35.22;;;12.10;99.90;;;;;;4993761;28;20050;-56
2023/05/12 04:41:37;;;;;;;107.97;32.90;;;12.10;99.90;;;;;;4993767;28;20034;-56
2023/05/12 04:44:03;;;;;;;84.55;32.80;;;12.20;99.90;;;;;;4993998;28;20354;-56
2023/05/12 04:46:28;;;;;;;76.22;33.17;;;11.80;99.90;;;;;;4993549;28;20497;-56
2023/05/12 04:48:54;;;;;;;118.30;33.78;;;11.80;99.90;;;;;;4993573;28;20049;-56
2023/05/12 04:51:20;;;;;;;82.72;32.58;;;12.60;99.90;;;;;;4993969;28;20096;-56
2023/05/12 04:53:45;;;;;;;87.93;34.72;;;11.80;99.90;;;;;;4993860;28;20713;-56
2023/05/12 04:56:11;;;;;;;89.70;30.90;;;12.40;99.90;;;;;;4993948;28;20562;-56
2023/05/12 04:58:37;;;;;;;80.95;34.97;;;12.10;99.90;;;;;;4993739;28;20057;-56
2023/05/12 05:01:03;;;;;;;88.68;34.80;;;11.90;99.90;;;;;;4993029;28;20050;-56
2023/05/12 05:03:28;;;;;;;82.47;30.95;;;11.90;99.90;;;;;;4993600;28;20121;-56
2023/05/12 05:05:54;;;;;;;93.13;35.83;;;12.00;99.90;;;;;;4993648;28;20046;-56
2023/05/12 05:08:20;;;;;;;93.38;35.13;;;12.20;99.90;;;;;;4993759;28;20049;-56
2023/05/12 05:10:45;;;;;;;92.38;33.03;;;12.00;99.90;;;;;;4993350;28;20049;-56
2023/05/12 05:13:11;;;;;;;85.75;33.15;;;12.00;99.90;;;;;;4993032;28;20082;-56
2023/05/12 05:15:36;;;;;;;114.88;36.78;;;12.00;99.90;;;;;;4993138;28;20042;-56
2023/05/12 05:18:02;;;;;;;73.90;32.10;;;12.10;99.90;;;;;;5001195;28;20046;-56
2023/05/12 05:20:28;;;;;;;103.22;31.48;;;12.00;99.90;;;;;;5013102;28;20056;-56
2023/05/12 05:22:54;;;;;;;79.90;30.52;;;12.20;99.90;;;;;;5012931;28;20037;-56
2023/05/12 05:25:19;;;;;;;97.30;35.60;;;12.10;99.90;;;;;;5012648;28;20467;-56
2023/05/12 05:27:45;;;;;;;91.95;35.50;;;12.10;99.90;;;;;;5012546;28;20082;-56
2023/05/12 05:30:11;;;;;;;84.93;32.97;;;12.30;99.90;;;;;;5012324;28;20054;-56
2023/05/12 05:32:39;;;;;;;93.05;33.47;;;12.10;99.90;;;;;;5012645;28;20066;-56
2023/05/12 05:35:05;;;;;;;72.13;32.50;;;12.10;99.90;;;;;;5012658;28;20126;-56
2023/05/12 05:37:31;;;;;;;96.25;32.63;;;12.10;99.90;;;;;;5012360;28;20088;-56
2023/05/12 05:39:57;;;;;;;83.47;33.15;;;12.30;99.90;;;;;;5012248;28;20038;-56
2023/05/12 05:42:22;;;;;;;72.57;31.55;;;12.10;99.90;;;;;;5012371;28;20048;-56
2023/05/12 05:44:48;;;;;;;89.00;32.83;;;12.10;99.90;;;;;;5012353;28;20054;-56
2023/05/12 05:47:14;;;;;;;72.95;30.95;;;12.10;99.90;;;;;;5012291;28;20038;-56
2023/05/12 05:49:41;;;;;;;76.82;32.13;;;12.50;99.90;;;;;;5012083;28;20121;-56
2023/05/12 05:52:06;;;;;;;65.55;29.25;;;12.10;99.90;;;;;;5011988;28;20052;-56
2023/05/12 05:54:32;;;;;;;74.55;30.33;;;12.10;99.90;;;;;;5011851;28;20117;-55
2023/05/12 05:57:00;;;;;;;68.63;29.83;;;12.10;99.90;;;;;;5012125;28;20140;-55
2023/05/12 05:59:26;;;;;;;110.60;31.02;;;12.20;99.90;;;;;;5011997;28;20042;-56
2023/05/12 06:01:52;;;;;;;70.75;30.33;;;12.20;99.90;;;;;;5011953;28;20500;-55
2023/05/12 06:04:18;;;;;;;73.22;32.08;;;12.30;99.90;;;;;;5011752;28;20053;-56
2023/05/12 06:06:43;;;;;;;93.95;34.22;;;12.30;99.90;;;;;;5011828;28;20038;-56
2023/05/12 06:09:11;;;;;;;64.15;30.58;;;12.30;99.90;;;;;;5010322;28;20108;-56
2023/05/12 06:11:38;;;;;;;70.13;30.48;;;12.40;99.90;;;;;;5010639;28;20045;-56
2023/05/12 06:14:04;;;;;;;74.57;29.23;;;12.40;99.90;;;;;;5011561;28;20060;-56
2023/05/12 06:16:29;;;;;;;58.67;29.98;;;12.40;99.90;;;;;;5011746;28;20049;-56
2023/05/12 06:18:55;;;;;;;50.42;26.73;;;12.40;99.90;;;;;;4995759;28;20042;-56
2023/05/12 06:21:21;;;;;;;56.80;27.48;;;12.40;99.90;;;;;;4991971;28;20124;-56
2023/05/12 06:23:46;;;;;;;53.58;28.45;;;12.60;99.90;;;;;;4992088;28;20085;-56
2023/05/12 06:26:12;;;;;;;57.42;27.38;;;12.30;99.90;;;;;;4991920;28;20524;-56
2023/05/12 06:28:38;;;;;;;59.53;28.80;;;12.30;99.90;;;;;;4991802;28;20845;-56
2023/05/12 06:31:07;;;;;;;60.50;28.88;;;12.40;99.90;;;;;;4991809;28;20096;-56
2023/05/12 06:33:33;;;;;;;48.38;25.17;;;12.40;99.90;;;;;;4991896;28;20046;-56
2023/05/12 06:35:59;;;;;;;58.55;27.77;;;12.30;99.90;;;;;;4992062;28;20097;-56
2023/05/12 06:38:24;;;;;;;50.50;26.27;;;12.30;99.90;;;;;;4991740;28;20117;-56
2023/05/12 06:40:50;;;;;;;55.80;27.75;;;12.30;99.90;;;;;;4991606;28;20088;-56
2023/05/12 06:43:15;;;;;;;56.75;27.77;;;12.30;99.90;;;;;;4991437;28;20046;-56
2023/05/12 06:45:43;;;;;;;57.65;28.50;;;12.30;99.90;;;;;;4991743;28;20532;-56
2023/05/12 06:48:09;;;;;;;62.42;28.38;;;12.30;99.90;;;;;;5006535;28;20057;-56
2023/05/12 06:50:34;;;;;;;55.97;27.15;;;12.40;99.90;;;;;;4991401;28;20038;-56
2023/05/12 06:53:00;;;;;;;68.00;28.10;;;13.10;99.90;;;;;;4991408;28;20389;-56
2023/05/12 06:55:27;;;;;;;64.00;27.63;;;12.20;99.90;;;;;;4991439;28;20042;-56
2023/05/12 06:57:54;;;;;;;54.58;28.70;;;12.30;99.90;;;;;;4991445;28;20057;-56
2023/05/12 07:00:24;;;;;;;65.18;29.13;;;12.40;99.90;;;;;;4991389;28;20397;-56
2023/05/12 07:02:50;;;;;;;51.40;27.55;;;12.60;99.90;;;;;;4991282;28;20618;-56
2023/05/12 07:05:17;;;;;;;70.13;31.30;;;12.30;99.90;;;;;;4990961;28;20109;-56
2023/05/12 07:07:43;;;;;;;61.85;27.83;;;12.30;99.90;;;;;;4991104;28;20085;-56
2023/05/12 07:10:09;;;;;;;63.58;29.65;;;12.60;99.90;;;;;;4991004;28;20042;-56
2023/05/12 07:12:37;;;;;;;58.55;30.67;;;12.50;99.90;;;;;;4991255;28;20042;-56
2023/05/12 07:15:03;;;;;;;63.88;32.30;;;12.70;99.90;;;;;;4991195;28;20034;-56
2023/05/12 07:17:29;;;;;;;59.55;31.73;;;12.50;99.90;;;;;;4994640;28;20128;-56
2023/05/12 07:19:55;;;;;;;71.30;32.13;;;12.60;99.90;;;;;;5010694;28;20629;-56
2023/05/12 07:22:20;;;;;;;68.50;31.60;;;12.70;99.90;;;;;;5010568;28;20073;-56
2023/05/12 07:24:46;;;;;;;74.65;33.58;;;12.70;99.90;;;;;;5010537;28;20050;-57
2023/05/12 07:27:12;;;;;;;71.05;32.83;;;12.90;99.90;;;;;;5010609;28;20468;-56
2023/05/12 07:29:37;;;;;;;62.42;32.15;;;12.90;99.90;;;;;;5010361;28;20501;-56
2023/05/12 07:32:03;;;;;;;61.72;32.83;;;13.00;99.90;;;;;;5010591;28;20575;-56
2023/05/12 07:34:31;;;;;;;57.47;34.05;;;13.10;99.90;;;;;;5010479;28;20046;-56
2023/05/12 07:36:58;;;;;;;58.25;32.90;;;13.20;99.90;;;;;;5010336;28;20053;-56
2023/05/12 07:39:24;;;;;;;57.13;31.92;;;13.40;99.90;;;;;;5010158;28;20586;-56
2023/05/12 07:41:50;;;;;;;56.90;32.38;;;13.40;99.90;;;;;;5010485;28;20049;-56
2023/05/12 07:44:16;;;;;;;57.25;32.78;;;13.50;99.90;;;;;;5010232;28;20050;-56
2023/05/12 07:46:42;;;;;;;52.78;32.08;;;13.90;99.90;;;;;;5010297;28;20053;-56
2023/05/12 07:49:07;;;;;;;48.20;31.45;;;13.70;99.90;;;;;;5010550;28;20044;-56
2023/05/12 07:51:33;;;;;;;46.40;30.08;;;13.80;99.90;;;;;;5010563;28;20127;-56
2023/05/12 07:53:59;;;;;;;47.10;32.15;;;13.80;99.90;;;;;;5010691;28;20077;-56
2023/05/12 07:56:25;;;;;;;45.10;30.85;;;13.90;99.90;;;;;;5010521;28;20045;-56
2023/05/12 07:58:51;;;;;;;51.50;31.13;;;14.00;99.90;;;;;;5010570;28;20119;-56
2023/05/12 08:01:16;;;;;;;43.53;29.45;;;14.10;99.90;;;;;;5010008;28;20096;-56
2023/05/12 08:03:42;;;;;;;45.17;29.77;;;14.10;99.90;;;;;;5009475;28;20038;-56
2023/05/12 08:06:08;;;;;;;45.60;31.33;;;14.20;99.90;;;;;;5009337;28;20140;-56
2023/05/12 08:08:35;;;;;;;44.38;31.52;;;14.20;99.90;;;;;;5008992;28;20056;-56
2023/05/12 08:11:01;;;;;;;44.25;30.42;;;14.40;99.90;;;;;;5009191;28;20041;-56
2023/05/12 08:13:26;;;;;;;41.05;28.60;;;14.40;99.90;;;;;;5010496;28;20396;-56
2023/05/12 08:15:52;;;;;;;40.75;29.23;;;14.50;99.90;;;;;;5011040;28;20069;-56
2023/05/12 08:18:18;;;;;;;38.50;28.60;;;14.70;99.90;;;;;;5000075;28;20129;-56
2023/05/12 08:20:44;;;;;;;40.70;29.75;;;14.70;99.90;;;;;;4991405;28;20481;-56
2023/05/12 08:23:09;;;;;;;39.40;28.55;;;14.90;99.90;;;;;;4991425;28;20362;-56
2023/05/12 08:25:36;;;;;;;38.75;27.83;;;15.00;99.90;;;;;;4990982;28;20038;-56
2023/05/12 08:28:02;;;;;;;38.78;29.13;;;15.10;99.90;;;;;;4992052;28;20766;-57
2023/05/12 08:30:28;;;;;;;36.20;28.70;;;15.20;99.90;;;;;;4991734;28;20062;-56
2023/05/12 08:32:55;;;;;;;37.55;28.38;;;15.30;99.90;;;;;;4992375;28;20038;-56
2023/05/12 08:35:20;;;;;;;35.25;28.17;;;15.40;99.90;;;;;;4993298;28;20636;-56
2023/05/12 08:37:46;;;;;;;38.45;28.08;;;15.50;99.90;;;;;;4995418;28;20076;-56
2023/05/12 08:40:20;;;;;;;35.92;26.80;;;15.60;99.90;;;;;;4995681;28;20041;-56
2023/05/12 08:42:55;;;;;;;32.58;27.42;;;15.70;99.90;;;;;;5010604;28;20073;-56
2023/05/12 08:45:22;;;;;;;33.08;25.88;;;15.90;99.90;;;;;;4995478;28;20042;-56
2023/05/12 08:47:50;;;;;;;34.40;27.55;;;16.00;99.90;;;;;;4995744;28;20042;-56
2023/05/12 08:50:17;;;;;;;37.28;26.88;;;16.10;99.90;;;;;;4995321;28;20450;-56
2023/05/12 08:52:43;;;;;;;29.17;25.00;;;16.30;99.90;;;;;;4995593;28;20042;-56
2023/05/12 08:55:11;;;;;;;31.15;25.55;;;16.40;99.90;;;;;;4995330;28;20041;-57
2023/05/12 08:57:36;;;;;;;29.90;26.08;;;16.60;99.90;;;;;;4995542;28;20046;-56
2023/05/12 09:00:04;;;;;;;29.58;26.35;;;16.80;99.90;;;;;;4995203;28;20054;-56
2023/05/12 09:02:31;;;;;;;29.83;25.95;;;17.00;99.90;;;;;;4995245;28;20046;-56
2023/05/12 09:04:56;;;;;;;33.53;26.83;;;17.00;99.90;;;;;;4993316;28;20049;-56
2023/05/12 09:07:23;;;;;;;31.40;26.38;;;17.20;99.90;;;;;;4995120;28;20034;-56
2023/05/12 09:09:54;;;;;;;28.10;25.08;;;17.30;99.90;;;;;;4995125;28;20046;-56
2023/05/12 09:12:20;;;;;;;26.87;23.97;;;17.50;99.90;;;;;;4995070;28;20045;-56
2023/05/12 09:14:55;;;;;;;30.55;26.08;;;17.50;99.90;;;;;;4995055;28;20030;-56
2023/05/12 09:17:21;;;;;;;26.83;23.92;;;17.60;99.90;;;;;;4997398;28;20493;-56
2023/05/12 09:19:47;;;;;;;28.92;24.27;;;17.70;99.90;;;;;;5014511;28;20049;-56
2023/05/12 09:22:13;;;;;;;28.27;23.67;;;17.70;99.90;;;;;;5013326;28;20037;-56
2023/05/12 09:24:40;;;;;;;28.92;25.80;;;17.80;99.90;;;;;;5014321;28;20073;-56
2023/05/12 09:27:06;;;;;;;26.25;23.08;;;17.80;99.90;;;;;;5014152;28;20041;-56
2023/05/12 09:29:33;;;;;;;29.33;26.02;;;18.20;99.90;;;;;;5014256;28;20042;-56
2023/05/12 09:32:01;;;;;;;26.23;23.48;;;18.00;99.90;;;;;;5014027;28;20042;-56
2023/05/12 09:34:34;;;;;;;26.30;23.60;;;18.00;99.90;;;;;;5014268;28;20030;-56
2023/05/12 09:37:04;;;;;;;25.38;22.70;;;18.20;99.90;;;;;;5014134;28;20045;-56
2023/05/12 09:39:29;;;;;;;27.33;24.15;;;18.30;99.90;;;;;;5013878;28;20042;-56
2023/05/12 09:41:55;;;;;;;26.02;23.38;;;18.60;99.90;;;;;;5013834;28;20041;-56
2023/05/12 09:44:22;;;;;;;26.45;23.27;;;18.60;99.90;;;;;;5013699;28;20038;-57
2023/05/12 09:46:48;;;;;;;24.95;22.25;;;18.60;99.90;;;;;;5013664;28;20056;-57
2023/05/12 09:49:27;;;;;;;25.50;22.90;;;18.70;99.90;;;;;;5013821;28;20139;-57
2023/05/12 09:51:57;;;;;;;24.98;22.55;;;19.00;99.90;;;;;;5013628;28;20503;-56
2023/05/12 09:54:27;;;;;;;24.60;22.00;;;19.00;99.90;;;;;;5013949;28;20046;-57
2023/05/12 09:56:57;;;;;;;22.80;20.52;;;19.00;99.90;;;;;;5013469;28;20050;-57
2023/05/12 09:59:28;;;;;;;26.27;22.00;;;19.20;99.90;;;;;;5013864;28;20045;-57
2023/05/12 10:01:57;;;;;;;23.75;21.10;;;19.20;99.90;;;;;;5002737;28;20038;-56
2023/05/12 10:04:24;;;;;;;23.25;20.83;;;19.40;99.90;;;;;;4989775;28;20496;-59
2023/05/12 10:06:51;;;;;;;23.25;20.90;;;19.40;99.90;;;;;;4993841;28;20396;-58
2023/05/12 10:09:24;;;;;;;24.10;21.58;;;19.60;99.90;;;;;;5005975;28;20049;-59
2023/05/12 10:11:51;;;;;;;23.33;21.00;;;19.70;99.90;;;;;;5005193;28;20121;-56
2023/05/12 10:14:17;;;;;;;22.90;20.60;;;19.90;99.90;;;;;;5006491;28;20025;-58
2023/05/12 10:16:45;;;;;;;23.98;21.67;;;19.80;99.90;;;;;;5006552;28;20049;-57
2023/05/12 10:19:12;;;;;;;22.35;20.15;;;19.90;99.90;;;;;;5010261;28;20116;-60
2023/05/12 10:21:39;;;;;;;22.05;19.85;;;19.90;99.90;;;;;;5013337;28;20046;-61
2023/05/12 10:24:05;;;;;;;23.67;21.40;;;19.90;99.90;;;;;;5012949;28;20128;-61
2023/05/12 10:26:33;;;;;;;23.40;21.10;;;20.00;99.90;;;;;;5013277;28;20081;-60
2023/05/12 10:28:59;;;;;;;23.85;21.45;;;20.10;99.90;;;;;;5013398;28;20106;-60
2023/05/12 10:31:26;;;;;;;22.55;20.35;;;20.30;99.90;;;;;;5012843;28;20058;-60
2023/05/12 10:34:00;;;;;;;22.80;20.35;;;20.30;99.90;;;;;;5013098;28;20046;-60
2023/05/12 10:36:26;;;;;;;21.40;19.20;;;20.40;99.90;;;;;;5012896;28;20381;-60
2023/05/12 10:38:52;;;;;;;22.88;20.50;;;20.40;99.90;;;;;;5013065;28;20049;-60
2023/05/12 10:41:29;;;;;;;22.25;20.05;;;20.40;99.90;;;;;;5013078;28;20168;-60
2023/05/12 10:43:55;;;;;;;22.27;19.98;;;20.40;99.90;;;;;;5013044;28;20128;-60
2023/05/12 10:46:23;;;;;;;21.83;19.70;;;20.40;99.90;;;;;;5012601;28;20164;-60
2023/05/12 10:49:09;;;;;;;20.73;18.65;;;20.40;99.90;;;;;;5012766;28;20117;-61
2023/05/12 10:51:44;;;;;;;20.27;18.27;;;20.50;99.90;;;;;;5012505;28;20396;-61
2023/05/12 10:54:11;;;;;;;16.70;15.05;;;20.40;99.90;;;;;;5012809;28;20365;-60
2023/05/12 10:56:37;;;;;;;17.33;15.60;;;20.40;99.90;;;;;;5012637;28;20041;-61
2023/05/12 10:59:09;;;;;;;16.67;15.07;;;20.30;99.90;;;;;;5012233;28;20369;-61
2023/05/12 11:01:35;;;;;;;19.58;17.50;;;20.20;99.90;;;;;;5012567;28;20049;-60
2023/05/12 11:04:11;;;;;;;19.90;17.80;;;20.10;99.90;;;;;;5011822;28;20480;-60
2023/05/12 11:06:38;;;;;;;17.20;15.60;;;20.10;99.90;;;;;;5012095;28;20507;-61
2023/05/12 11:09:04;;;;;;;16.13;14.43;;;20.00;99.90;;;;;;5011536;28;20423;-61
2023/05/12 11:11:30;;;;;;;15.30;13.70;;;20.00;99.90;;;;;;5012693;28;20029;-61
2023/05/12 11:13:57;;;;;;;16.25;14.65;;;19.90;99.90;;;;;;5012232;28;20037;-60
2023/05/12 11:16:23;;;;;;;15.13;13.63;;;19.90;99.90;;;;;;5011269;28;20443;-61
2023/05/12 11:19:02;;;;;;;15.95;14.35;;;19.90;99.90;;;;;;5012390;28;20076;-61
2023/05/12 11:21:30;;;;;;;15.65;14.13;;;19.90;99.90;;;;;;5012210;28;20048;-61
2023/05/12 11:23:57;;;;;;;14.02;12.52;;;19.90;99.90;;;;;;5012400;28;20045;-61
2023/05/12 11:26:22;;;;;;;15.10;13.02;;;19.90;99.90;;;;;;5012145;28;20133;-61
2023/05/12 11:28:48;;;;;;;12.45;11.20;;;19.90;99.90;;;;;;5012139;28;20120;-61
2023/05/12 11:31:19;;;;;;;11.48;10.23;;;19.90;99.90;;;;;;5011843;28;20049;-61
2023/05/12 11:33:45;;;;;;;9.95;9.05;;;19.90;99.90;;;;;;5012368;28;20069;-61
2023/05/12 11:36:11;;;;;;;10.88;8.70;;;19.90;99.90;;;;;;5012387;28;20049;-58
2023/05/12 11:38:36;;;;;;;9.18;8.27;;;19.90;99.90;;;;;;5012271;28;20045;-61
2023/05/12 11:41:02;;;;;;;9.32;8.23;;;19.90;99.90;;;;;;5012172;28;20447;-58
2023/05/12 11:43:28;;;;;;;6.90;6.20;;;19.90;99.90;;;;;;5012373;28;20046;-58
2023/05/12 11:45:54;;;;;;;7.45;4.45;;;19.90;99.90;;;;;;5012194;28;20404;-57
2023/05/12 11:48:21;;;;;;;5.10;4.60;;;20.00;99.90;;;;;;5012020;28;20479;-58
2023/05/12 11:50:49;;;;;;;5.82;4.40;;;20.00;99.90;;;;;;5012079;28;20574;-58
2023/05/12 11:53:17;;;;;;;4.78;3.92;;;20.20;99.90;;;;;;5011984;28;20049;-58
2023/05/12 11:55:51;;;;;;;7.05;4.38;;;20.00;99.90;;;;;;5012158;28;20050;-58
2023/05/12 11:58:29;;;;;;;6.43;3.92;;;20.00;99.90;;;;;;5011987;28;20057;-57
2023/05/12 12:00:56;;;;;;;5.05;4.13;;;20.00;99.90;;;;;;5012151;28;20046;-57
2023/05/12 12:03:23;;;;;;;6.68;5.72;;;20.00;99.90;;;;;;5011957;28;20547;-57
2023/05/12 12:06:00;;;;;;;5.65;4.60;;;20.00;99.90;;;;;;5011640;28;20120;-57
2023/05/12 12:08:25;;;;;;;6.13;4.25;;;20.10;99.90;;;;;;5011629;28;20078;-57
2023/05/12 12:10:51;;;;;;;7.82;4.82;;;20.10;99.90;;;;;;5014017;28;20073;-57
2023/05/12 12:13:22;;;;;;;4.93;2.85;;;20.10;99.90;;;;;;5015563;28;20045;-58
2023/05/12 12:15:48;;;;;;;4.47;2.40;;;20.20;99.90;;;;;;5015715;28;20057;-57
2023/05/12 12:18:15;;;;;;;4.05;2.58;;;20.20;99.90;;;;;;5005742;28;20126;-58
2023/05/12 12:20:42;;;;;;;4.57;2.78;;;20.20;99.90;;;;;;4995999;28;20050;-57
2023/05/12 12:23:07;;;;;;;44.47;13.38;;;20.30;99.90;;;;;;4995878;28;20567;-57
2023/05/12 12:25:33;;;;;;;4.45;3.05;;;20.30;99.90;;;;;;4994842;28;20081;-58